Terminal Aerodrome Forecast
Issued by NWS

Home | Current Version | Previous Version | Text Only | Print | Product List | Glossary On
Versions: 1 2 3 4 5 6 7 8 9 10 11 12
337
FTUS41 KPBZ 280522
TAFBVI
TAF
KBVI 280522Z 2806/2906 25003KT P6SM SCT013 BKN040
      TEMPO 2812/2816 BKN015
     FM281600 07003KT P6SM VCSH BKN025
     FM282100 02015KT 5SM SHRA OVC035
     FM290300 04009KT 5SM SHRA BR OVC015
     FM290500 04009KT 3SM SHRA BR BKN008
      AMD NOT SKED TIL 281200=

USA.gov is the U.S. government's official web portal to all federal, state and local government web resources and services.